65.3F
Current conditions from King Hill
Updated every 5 minutes
 
  Monday September 16, 2019

Observations for Westford

Westford

44° 37' 38"N, 73° 02' 29"W, Elevation 850 ft.
Eastern Time

Hourly observations for the last 72 hours

Date Time Temperature (°F) Humi-
dity

(%)
Wind
(mph)
Pressure Rain (in)
Air Dew 6 Hour 1 Hr 3 Hr 6 Hr Day
Alt
(in)
Sea
Level

(mb)
Max Min
15 14:00 65.6 52.7 67.5 54.8 63 NW 1 G 8 30.02 1016.6 0.00
15 13:00 66.3 53.8 64 WNW 0 G 11 30.03 1016.9 0.00
15 12:00 65.8 52.0 61 W 2 G 11 30.04 1017.3 0.00
15 11:00 64.0 52.8 67 WSW 3 G 13 30.05 1017.5 0.00
15 10:00 62.0 51.3 68 W 4 G 12 30.07 1018.3 0.00
15 09:00 60.6 51.2 71 W 0 G 8 30.07 1018.3 0.00
15 08:00 55.0 47.2 57.3 52.3 75 W 0 G 4 30.07 1018.4 0.00
15 07:00 55.5 47.7 75 WSW 3 G 12 30.07 1018.3 0.00
15 06:00 56.3 48.5 75 WNW 1 G 13 30.07 1018.3 0.00
15 05:00 53.0 42.0 66 W 2 G 10 30.06 1018.1 0.00
15 04:00 52.6 40.4 63 W 0 G 7 30.05 1017.7 0.00
15 03:00 55.9 47.7 74 Calm 30.05 1017.8 0.00
15 02:00 57.3 49.5 62.1 57.3 75 W 0 G 7 30.06 1018.1 0.00
15 01:00 59.7 47.1 63 WSW 0 G 10 30.06 1018.0 0.00
15 00:00 59.6 47.0 63 WSW 0 G 10 30.06 1018.0 0.00
14 23:00 59.1 36.6 43 SW 0 G 3 30.05 1017.6 0.00
14 22:00 60.9 43.7 53 SSW 2 G 8 30.06 1017.9 0.00
14 21:00 61.8 48.7 62 SSW 2 G 11 30.05 1017.6 0.00
14 20:00 61.9 49.6 66.5 61.5 64 SW 2 G 12 30.03 1017.0 0.00
14 19:00 62.0 51.7 69 S 0 G 16 30.00 1016.0 0.00
14 18:00 65.1 56.6 74 SSW 5 G 18 30.00 1015.9 0.00
14 17:00 66.0 57.5 74 SSW 2 G 16 30.00 1016.0 0.00
14 16:00 64.2 55.7 74 SSW 2 G 18 30.01 1016.2 0.00
14 15:00 63.1 54.7 74 SW 7 G 15 30.03 1016.8 0.00
14 14:00 63.4 55.0 64.2 55.6 74 SSW 6 G 15 30.04 1017.4 0.00
14 13:00 61.8 53.4 74 S 1 G 16 30.05 1017.7 0.00
14 12:00 60.2 51.9 74 S 6 G 25 30.07 1018.4 0.00
14 11:00 58.6 50.3 74 SSW 3 G 24 30.09 1018.9 0.00
14 10:00 57.1 48.9 74 SSW 6 G 22 30.11 1019.7 0.00
14 09:00 56.8 49.0 75 SW 4 G 21 30.10 1019.2 0.00
14 08:00 55.6 47.8 57.3 53.6 75 SSW 5 G 23 30.11 1019.8 0.00
14 07:00 53.7 46.3 76 SW 5 G 20 30.12 1020.1 0.00
14 06:00 56.1 46.8 71 S 5 G 28 30.13 1020.4 0.00
14 05:00 56.2 45.0 66 SSW 8 G 24 30.13 1020.2 0.00
14 04:00 56.6 46.6 69 S 7 G 32 30.12 1019.9 0.00
14 03:00 57.0 47.3 70 S 6 G 29 30.14 1020.8 0.00
14 02:00 57.2 46.7 57.6 55.5 68 SSW 6 G 29 30.18 1022.1 0.00
14 01:00 57.0 47.3 70 S 2 G 20 30.18 1022.1 0.00
14 00:00 57.5 47.0 68 S 1 G 15 30.21 1023.0 0.01
13 23:00 56.9 46.1 67 S 2 G 12 30.24 1024.0 0.01
13 22:00 56.6 45.8 67 SSW 1 G 14 30.26 1024.8 0.01
13 21:00 55.7 45.3 68 WNW 0 G 10 30.27 1025.2 0.01
13 20:00 56.2 45.8 67.9 55.5 68 SSE 0 G 4 30.28 1025.4 0.01
13 19:00 56.4 46.4 69 Calm 30.31 1026.4 0.01
13 18:00 64.1 47.6 55 E 0 G 11 30.33 1027.0 0.01
13 17:00 67.2 49.0 52 S 1 G 8 30.33 1027.3 0.01
13 16:00 66.8 51.1 57 SSE 0 G 7 30.35 1027.9 0.01
13 15:00 67.5 48.8 51 S 0 G 15 30.37 1028.4 0.01
13 14:00 67.3 47.5 67.7 41.8 49 SE 0 G 8 30.40 1029.5 0.01 0.01
13 13:00 66.8 49.6 54 SW 3 G 11 30.42 1030.2 0.01
13 12:00 65.4 50.3 58 SW 1 G 9 30.44 1030.7 0.01
13 11:00 63.2 50.4 63 Calm 30.44 1030.9 0.01 0.01
13 10:00 58.1 49.1 72 Calm 30.46 1031.4 0.01
13 09:00 51.0 24.3 35 Calm 30.46 1031.5 0.01 0.01
13 08:00 41.8 20.4 42.0 38.1 42 Calm 30.45 1031.2 0.00
13 07:00 40.5 19.8 43 Calm 30.42 1030.1 0.00
13 06:00 38.4 18.4 44 Calm 30.40 1029.4 0.00
13 05:00 39.6 18.9 43 Calm 30.40 1029.3 0.00
13 04:00 38.7 18.7 44 Calm 30.39 1029.2 0.00
13 03:00 38.9 18.8 44 Calm 30.37 1028.5 0.00
13 02:00 39.5 19.4 47.4 39.5 44 Calm 30.36 1028.3 0.00
13 01:00 40.5 19.8 43 Calm 30.35 1028.0 0.00
13 00:00 41.0 20.8 44 Calm 30.33 1027.3 0.00
12 23:00 41.9 21.6 44 Calm 30.32 1026.8 0.00
12 22:00 42.5 23.7 47 Calm 30.32 1026.7 0.00
12 21:00 44.0 27.0 51 Calm 30.30 1026.2 0.00
12 20:00 47.4 34.6 65.8 47.4 61 Calm 30.28 1025.6 0.00
12 19:00 53.9 45.8 74 Calm 30.27 1025.0 0.00
12 18:00 61.5 52.0 71 Calm 30.24 1024.1 0.00
12 17:00 62.7 49.5 62 N 0 G 8 30.22 1023.3 0.00
12 16:00 63.4 51.0 64 N 0 G 8 30.20 1022.8 3.53
12 15:00 62.7 51.2 66 NE 0 G 6 30.19 1022.4 3.53

Data generated by WxSolution Version 1.9.1.7, Build 2018.11.24.


 
 
Current Radar Loop:

Copyright © WestfordWeather.net 2007-2019. All rights reserved.